Time;durP1;ratioP1;P1;durP2;ratioP2;P2;SDS_P1;SDS_P2;PMS_P1;PMS_P2;Temp;Humidity;BMP_temperature;BMP_pressure;BME280_temperature;BME280_humidity;BME280_pressure;Samples;Min_cycle;Max_cycle;Signal;HPM_P1;HPM_P2
2022/11/26 00:08:21;;;;;;;1.70;0.70;;;;;;;6.65;69.47;101306.38;18426134;32;20105;-58
2022/11/26 00:18:25;;;;;;;0.68;0.68;;;;;;;6.73;69.71;101317.81;18433533;32;20111;-58
2022/11/26 00:28:31;;;;;;;1.33;1.27;;;;;;;7.00;68.75;101327.22;18433092;32;20105;-58
2022/11/26 00:38:34;;;;;;;0.57;0.57;;;;;;;7.06;68.74;101326.50;18434192;32;20096;-58
2022/11/26 00:48:39;;;;;;;2.35;2.25;;;;;;;6.87;69.48;101328.59;18433233;32;20160;-58
2022/11/26 00:58:43;;;;;;;0.80;0.80;;;;;;;7.08;68.87;101333.50;18432573;32;20195;-58
2022/11/26 01:08:48;;;;;;;0.70;0.70;;;;;;;7.20;68.30;101332.97;18432665;32;20104;-58
2022/11/26 01:18:53;;;;;;;2.10;2.00;;;;;;;7.07;68.43;101343.88;18432233;32;20136;-58
2022/11/26 01:28:58;;;;;;;1.87;1.25;;;;;;;6.99;68.56;101346.22;18431943;32;20107;-58
2022/11/26 01:39:04;;;;;;;1.23;1.23;;;;;;;7.02;68.67;101348.03;18431542;32;20180;-58
2022/11/26 01:49:20;;;;;;;2.15;2.05;;;;;;;6.93;68.54;101348.66;18431481;32;20082;-59
2022/11/26 01:59:26;;;;;;;0.43;0.43;;;;;;;6.34;71.00;101347.84;18431092;32;20122;-58
2022/11/26 02:09:31;;;;;;;0.77;0.77;;;;;;;6.75;69.46;101352.50;18430442;32;20147;-58
2022/11/26 02:20:06;;;;;;;0.82;0.82;;;;;;;6.89;69.01;101352.00;18430317;32;20097;-59
2022/11/26 02:30:12;;;;;;;0.65;0.65;;;;;;;6.78;68.99;101355.16;18430137;32;20467;-58
2022/11/26 02:40:18;;;;;;;0.93;0.90;;;;;;;6.76;68.92;101369.81;18429065;32;20116;-58
2022/11/26 02:50:26;;;;;;;0.50;0.50;;;;;;;6.74;69.12;101375.78;18416251;32;20158;-58
2022/11/26 03:00:31;;;;;;;2.17;1.55;;;;;;;6.75;68.98;101368.06;18429007;32;20101;-58
2022/11/26 03:10:36;;;;;;;2.50;2.30;;;;;;;6.58;69.32;101377.06;18428904;32;20092;-58
2022/11/26 03:20:39;;;;;;;1.92;1.83;;;;;;;6.63;69.11;101373.78;18428465;32;20100;-58
2022/11/26 03:30:43;;;;;;;0.80;0.80;;;;;;;6.55;69.30;101389.94;18428069;32;20365;-58
2022/11/26 03:40:56;;;;;;;0.95;0.95;;;;;;;6.56;69.24;101392.56;18427632;32;20613;-58
2022/11/26 03:51:00;;;;;;;0.75;0.75;;;;;;;6.40;69.49;101401.59;18425567;32;20109;-58
2022/11/26 04:01:07;;;;;;;1.40;1.40;;;;;;;6.49;69.27;101412.25;18426705;32;20166;-58
2022/11/26 04:11:12;;;;;;;1.25;1.15;;;;;;;6.57;68.86;101428.06;18426150;32;20130;-58
2022/11/26 04:21:15;;;;;;;1.40;1.30;;;;;;;6.50;68.99;101423.53;18425237;32;20119;-58
2022/11/26 04:31:20;;;;;;;0.57;0.57;;;;;;;6.51;68.73;101427.88;18425113;32;20146;-58
2022/11/26 04:41:23;;;;;;;1.65;1.10;;;;;;;6.23;68.77;101446.03;18425304;32;20127;-58
2022/11/26 04:51:27;;;;;;;0.60;0.60;;;;;;;6.24;68.99;101460.75;18423445;32;20133;-58
2022/11/26 05:01:30;;;;;;;0.80;0.77;;;;;;;6.22;68.63;101459.81;18429514;32;20105;-58
2022/11/26 05:11:35;;;;;;;0.85;0.85;;;;;;;6.18;68.20;101483.00;18432689;32;20142;-58
2022/11/26 05:21:38;;;;;;;0.55;0.55;;;;;;;5.90;68.54;101498.50;18432054;32;20124;-58
2022/11/26 05:31:43;;;;;;;0.62;0.62;;;;;;;5.83;68.48;101499.09;18431460;32;20107;-58
2022/11/26 05:41:46;;;;;;;0.90;0.90;;;;;;;5.78;68.42;101498.94;18431485;32;20107;-58
2022/11/26 05:51:50;;;;;;;0.70;0.70;;;;;;;5.69;68.41;101509.88;18432178;32;20105;-58
2022/11/26 06:01:54;;;;;;;0.70;0.70;;;;;;;5.78;68.48;101513.59;18417929;32;20479;-58
2022/11/26 06:11:58;;;;;;;1.02;1.02;;;;;;;5.58;68.78;101537.06;18421724;32;20087;-58
2022/11/26 06:22:01;;;;;;;1.42;1.30;;;;;;;5.74;68.47;101558.38;18414504;32;20116;-58
2022/11/26 06:32:06;;;;;;;0.50;0.50;;;;;;;5.83;68.35;101545.75;18430197;32;20136;-58
2022/11/26 06:42:09;;;;;;;0.70;0.70;;;;;;;5.96;68.17;101557.44;18429874;32;20124;-58
2022/11/26 06:52:14;;;;;;;1.40;1.33;;;;;;;5.87;68.04;101557.97;18415280;32;20509;-58
2022/11/26 07:02:17;;;;;;;0.82;0.82;;;;;;;5.79;68.58;101570.66;18364916;32;20112;-58
2022/11/26 07:12:22;;;;;;;0.60;0.60;;;;;;;5.88;68.68;101583.09;18364200;32;20386;-58
2022/11/26 07:22:25;;;;;;;5.70;2.25;;;;;;;5.93;68.46;101585.84;18363797;32;20096;-58
2022/11/26 07:32:31;;;;;;;1.90;1.80;;;;;;;5.99;68.32;101590.34;18364546;32;20097;-58
2022/11/26 07:42:34;;;;;;;0.80;0.80;;;;;;;6.10;68.26;101589.94;18364086;32;20158;-58
2022/11/26 07:52:39;;;;;;;0.60;0.60;;;;;;;6.11;68.42;101589.09;18362956;32;20120;-58
2022/11/26 08:02:42;;;;;;;0.80;0.80;;;;;;;6.40;67.98;101603.91;18363190;32;20085;-58
2022/11/26 08:12:46;;;;;;;0.60;0.60;;;;;;;6.44;67.87;101605.78;18363856;32;20694;-58
2022/11/26 08:22:50;;;;;;;0.80;0.80;;;;;;;6.37;67.95;101607.28;18363397;32;20119;-58
2022/11/26 08:32:54;;;;;;;0.57;0.57;;;;;;;6.56;68.38;101641.62;18368258;32;20146;-58
2022/11/26 08:42:57;;;;;;;1.50;1.40;;;;;;;6.58;68.61;101644.28;18369610;32;86083;-58
2022/11/26 08:53:02;;;;;;;0.80;0.80;;;;;;;6.73;68.19;101656.91;18371727;32;20110;-58
2022/11/26 09:03:05;;;;;;;1.52;1.42;;;;;;;6.99;67.28;101654.31;18371754;32;20089;-58
2022/11/26 09:13:09;;;;;;;0.70;0.70;;;;;;;6.65;68.23;101685.19;18371389;32;20089;-58
2022/11/26 09:23:12;;;;;;;0.75;0.75;;;;;;;7.13;67.10;101680.72;18370884;32;20121;-58
2022/11/26 09:33:17;;;;;;;1.17;1.02;;;;;;;7.22;67.14;101688.81;18372301;32;20404;-58
2022/11/26 09:43:27;;;;;;;0.70;0.70;;;;;;;6.86;68.11;101678.97;18369611;32;20433;-58
2022/11/26 09:53:35;;;;;;;1.33;1.23;;;;;;;6.99;67.98;101703.63;18370407;32;20133;-58
2022/11/26 10:03:38;;;;;;;0.82;0.82;;;;;;;6.80;68.44;101693.50;18370410;32;20116;-58
2022/11/26 10:13:46;;;;;;;0.62;0.62;;;;;;;7.45;66.80;101693.84;18370914;32;20097;-58
2022/11/26 10:23:52;;;;;;;0.50;0.50;;;;;;;6.98;69.55;101686.28;18369718;32;20089;-58
2022/11/26 10:34:00;;;;;;;0.70;0.70;;;;;;;7.39;67.17;101694.53;18369067;32;20397;-58
2022/11/26 10:44:29;;;;;;;0.98;0.95;;;;;;;7.42;68.09;101689.44;18369269;32;20101;-58
2022/11/26 10:54:35;;;;;;;0.60;0.60;;;;;;;7.05;69.71;101683.94;18369137;32;20146;-58
2022/11/26 11:04:41;;;;;;;1.45;1.35;;;;;;;7.55;68.17;101672.50;18368733;32;20445;-58
2022/11/26 11:14:47;;;;;;;1.75;1.42;;;;;;;7.49;69.00;101669.72;18369259;32;20100;-58
2022/11/26 11:24:50;;;;;;;0.80;0.80;;;;;;;7.95;67.24;101657.22;18367819;32;20116;-58
2022/11/26 11:34:55;;;;;;;0.60;0.60;;;;;;;8.27;66.76;101667.66;18365825;32;20098;-58
2022/11/26 11:45:00;;;;;;;1.62;1.52;;;;;;;8.05;67.42;101661.84;18367188;32;20120;-58
2022/11/26 11:55:16;;;;;;;4.03;2.62;;;;;;;8.96;64.75;101649.50;18366510;32;20089;-58
2022/11/26 12:05:46;;;;;;;3.72;1.75;;;;;;;8.44;67.26;101649.91;18367810;32;20084;-58
2022/11/26 12:15:53;;;;;;;0.65;0.65;;;;;;;9.21;64.69;101655.31;18366495;32;20094;-58
2022/11/26 12:26:00;;;;;;;1.55;0.70;;;;;;;9.57;63.90;101649.16;18373142;32;20135;-59
2022/11/26 12:36:09;;;;;;;3.45;2.33;;;;;;;9.64;63.41;101645.00;18372645;32;20126;-59
2022/11/26 12:46:18;;;;;;;3.03;1.75;;;;;;;9.90;63.22;101635.94;18372393;32;20142;-58
2022/11/26 12:56:29;;;;;;;0.55;0.55;;;;;;;10.18;62.56;101634.75;18371987;32;20170;-59
2022/11/26 13:06:43;;;;;;;5.57;1.65;;;;;;;10.12;62.63;101627.69;18372795;32;20102;-59
2022/11/26 13:16:53;;;;;;;4.40;3.42;;;;;;;9.67;64.45;101636.31;18371234;32;20103;-59
2022/11/26 13:27:13;;;;;;;2.30;2.00;;;;;;;9.91;63.65;101628.16;18372513;32;20175;-59
2022/11/26 13:37:29;;;;;;;2.85;2.15;;;;;;;9.91;63.61;101636.00;18369507;32;20093;-58
2022/11/26 13:47:35;;;;;;;8.50;2.45;;;;;;;10.21;63.38;101632.22;18370113;32;20460;-58
2022/11/26 13:57:41;;;;;;;3.15;2.85;;;;;;;10.30;62.92;101636.72;18369822;32;20093;-58
2022/11/26 14:07:45;;;;;;;2.25;2.05;;;;;;;10.35;63.06;101652.47;18370328;32;20487;-59
2022/11/26 14:17:56;;;;;;;1.23;1.05;;;;;;;9.95;64.26;101660.37;18369912;32;20112;-59
2022/11/26 14:28:02;;;;;;;2.33;1.47;;;;;;;10.25;63.78;101651.44;18368942;32;20139;-59
2022/11/26 14:38:21;;;;;;;1.40;1.30;;;;;;;10.29;63.63;101650.63;18369462;32;20109;-58
2022/11/26 14:48:26;;;;;;;8.48;5.62;;;;;;;10.21;64.28;101657.44;18369162;32;20102;-59
2022/11/26 14:58:33;;;;;;;1.40;1.25;;;;;;;10.10;64.59;101658.09;18369704;32;20202;-59
2022/11/26 15:08:36;;;;;;;22.00;12.93;;;;;;;9.38;67.73;101673.06;18368856;32;20093;-59
2022/11/26 15:18:41;;;;;;;4.53;3.92;;;;;;;9.68;65.18;101675.47;18367012;32;20093;-59
2022/11/26 15:28:44;;;;;;;11.48;2.78;;;;;;;9.55;65.13;101676.06;18368789;32;20358;-58
2022/11/26 15:39:05;;;;;;;21.87;10.70;;;;;;;9.23;64.77;101684.00;18366920;32;20081;-58
2022/11/26 15:49:17;;;;;;;18.70;8.98;;;;;;;8.84;64.51;101691.75;18366642;32;20445;-59
2022/11/26 15:59:22;;;;;;;1.85;1.75;;;;;;;8.54;64.33;101691.84;18365883;32;20123;-58
2022/11/26 16:09:27;;;;;;;7.00;5.97;;;;;;;8.15;64.64;101683.78;18365773;32;20105;-58
2022/11/26 16:19:32;;;;;;;3.05;2.40;;;;;;;7.85;65.24;101692.47;18365994;32;20112;-59
2022/11/26 16:29:36;;;;;;;17.52;9.93;;;;;;;7.81;65.17;101698.44;18364383;32;20101;-58
2022/11/26 16:39:41;;;;;;;12.27;11.23;;;;;;;7.61;65.44;101690.91;18363842;32;20085;-58
2022/11/26 16:49:44;;;;;;;10.48;9.25;;;;;;;7.29;66.88;101688.16;18363143;32;20108;-59
2022/11/26 16:59:51;;;;;;;13.82;12.55;;;;;;;7.25;65.80;101694.09;18371166;32;20109;-58
2022/11/26 17:09:54;;;;;;;23.83;11.43;;;;;;;6.89;66.93;101703.31;18370358;32;20101;-59
2022/11/26 17:19:59;;;;;;;25.98;17.12;;;;;;;6.94;66.89;101700.88;18369437;32;20090;-58
2022/11/26 17:30:02;;;;;;;63.13;43.60;;;;;;;6.96;66.46;101699.22;18371232;32;20132;-58
2022/11/26 17:40:16;;;;;;;9.10;8.38;;;;;;;7.06;66.03;101715.97;18371932;32;20141;-58
2022/11/26 17:50:21;;;;;;;7.15;6.50;;;;;;;6.93;66.68;101709.50;18370651;32;20460;-58
2022/11/26 18:00:28;;;;;;;7.15;4.97;;;;;;;6.42;69.52;101710.34;18368589;32;20101;-59
2022/11/26 18:10:31;;;;;;;6.85;4.75;;;;;;;6.95;67.97;101707.84;18369120;32;20097;-58
2022/11/26 18:20:35;;;;;;;5.45;4.95;;;;;;;7.12;68.61;101704.94;18368544;32;20093;-58
2022/11/26 18:30:38;;;;;;;9.98;6.10;;;;;;;7.16;69.11;101706.78;18369739;32;20085;-58
2022/11/26 18:40:43;;;;;;;4.00;3.70;;;;;;;7.53;68.34;101702.78;18367986;32;20207;-58
2022/11/26 18:50:48;;;;;;;3.37;2.58;;;;;;;7.67;68.63;101699.72;18369023;32;20106;-58
2022/11/26 19:00:57;;;;;;;8.20;7.47;;;;;;;7.72;68.88;101708.53;18367463;32;20085;-58
2022/11/26 19:11:07;;;;;;;8.20;6.43;;;;;;;7.88;68.40;101715.09;18368362;32;20092;-58
2022/11/26 19:21:18;;;;;;;15.57;11.20;;;;;;;7.72;68.51;101716.34;18366145;32;20117;-59
2022/11/26 19:31:24;;;;;;;25.17;6.93;;;;;;;7.73;68.66;101726.78;18367809;32;20147;-59
2022/11/26 19:41:29;;;;;;;10.68;9.63;;;;;;;7.86;68.56;101717.63;18365783;32;20382;-58
2022/11/26 19:51:33;;;;;;;6.45;5.90;;;;;;;7.82;68.64;101725.28;18364971;32;20116;-58
2022/11/26 20:01:37;;;;;;;24.83;19.10;;;;;;;8.00;67.79;101732.78;18364525;32;20089;-58
2022/11/26 20:11:41;;;;;;;8.60;7.87;;;;;;;7.93;68.94;101741.22;18364252;32;20389;-58
2022/11/26 20:21:46;;;;;;;14.87;5.10;;;;;;;7.98;68.54;101747.47;18364500;32;20094;-58
2022/11/26 20:31:51;;;;;;;8.10;5.95;;;;;;;8.07;67.74;101741.63;18371126;32;20098;-59
2022/11/26 20:41:56;;;;;;;3.53;3.30;;;;;;;8.02;67.81;101737.19;18370909;32;20115;-58
2022/11/26 20:51:59;;;;;;;3.37;2.10;;;;;;;7.93;68.14;101734.31;18371158;32;20139;-58
2022/11/26 21:02:05;;;;;;;10.52;4.68;;;;;;;7.97;67.76;101743.09;18370924;32;20101;-58
2022/11/26 21:12:08;;;;;;;3.67;3.00;;;;;;;7.90;67.94;101748.09;18371831;32;20104;-58
2022/11/26 21:22:13;;;;;;;2.95;2.47;;;;;;;7.96;67.66;101742.19;18370105;32;20089;-58
2022/11/26 21:32:16;;;;;;;17.52;8.75;;;;;;;7.97;67.42;101745.69;18371256;32;20102;-58
2022/11/26 21:42:21;;;;;;;5.87;4.68;;;;;;;7.98;67.43;101747.47;18369835;32;20093;-58
2022/11/26 21:52:24;;;;;;;2.40;2.25;;;;;;;8.01;67.39;101758.81;18370375;32;20435;-58
2022/11/26 22:02:28;;;;;;;24.87;3.80;;;;;;;7.99;67.69;101767.44;18368482;32;20145;-58
2022/11/26 22:12:32;;;;;;;4.82;4.45;;;;;;;7.90;67.67;101787.09;18370039;32;20149;-58
2022/11/26 22:22:36;;;;;;;3.00;2.33;;;;;;;7.89;67.59;101785.34;18367833;32;20094;-58
2022/11/26 22:32:39;;;;;;;2.58;2.37;;;;;;;7.80;67.85;101764.25;18369531;32;20098;-58
2022/11/26 22:42:43;;;;;;;7.50;6.43;;;;;;;7.84;67.76;101771.31;18369247;32;20089;-58
2022/11/26 22:52:47;;;;;;;4.72;4.32;;;;;;;7.77;67.67;101770.22;18366662;32;20097;-59
2022/11/26 23:02:51;;;;;;;1.98;1.80;;;;;;;7.86;67.37;101769.63;18368770;32;20199;-58
2022/11/26 23:12:54;;;;;;;1.15;1.12;;;;;;;7.60;67.78;101767.09;18368514;32;20133;-58
2022/11/26 23:22:59;;;;;;;1.95;1.85;;;;;;;7.63;67.73;101768.91;18367863;32;20101;-58
2022/11/26 23:33:02;;;;;;;3.30;3.10;;;;;;;7.64;67.79;101768.97;18366497;32;20167;-58
2022/11/26 23:43:07;;;;;;;1.15;1.15;;;;;;;7.68;67.59;101749.16;18367322;32;20120;-58
2022/11/26 23:53:10;;;;;;;3.33;3.08;;;;;;;7.62;67.40;101751.53;18366489;32;20094;-58
